Time,TemperatureF,DewpointF,PressureIn,WindDirection,WindDirectionDegrees,WindSpeedMPH,WindSpeedGustMPH,Humidity,HourlyPrecipIn,Conditions,Clouds,dailyrainin,SoftwareType,DateUTC
2013-07-06 00:02:00,74.0,59.0,-100.00,SSW,205,6.0,12.0,60,-99.99,,,-99.99,,2013-07-06 05:02:00,
2013-07-06 00:22:00,74.0,59.0,-100.00,South,190,4.0,16.0,60,-99.99,,,-99.99,,2013-07-06 05:22:00,
2013-07-06 00:34:00,74.0,59.0,-100.00,South,190,4.0,16.0,60,-99.99,,,-99.99,,2013-07-06 05:34:00,
2013-07-06 00:43:00,74.0,59.0,-100.00,South,190,4.0,16.0,60,-99.99,,,-99.99,,2013-07-06 05:43:00,
2013-07-06 00:53:00,74.0,59.0,-100.00,South,190,4.0,16.0,60,-99.99,,,-99.99,,2013-07-06 05:53:00,
2013-07-06 01:01:00,72.0,60.0,-100.00,South,180,4.0,9.0,67,-99.99,,,-99.99,,2013-07-06 06:01:00,
2013-07-06 01:22:00,72.0,60.0,-100.00,South,180,4.0,9.0,67,-99.99,,,-99.99,,2013-07-06 06:22:00,
2013-07-06 01:34:00,72.0,60.0,-100.00,South,180,4.0,9.0,67,-99.99,,,-99.99,,2013-07-06 06:34:00,
2013-07-06 01:43:00,72.0,60.0,-100.00,South,180,4.0,9.0,67,-99.99,,,-99.99,,2013-07-06 06:43:00,
2013-07-06 01:53:00,72.0,60.0,-100.00,South,180,4.0,9.0,67,-99.99,,,-99.99,,2013-07-06 06:53:00,
2013-07-06 02:02:00,71.0,61.0,-100.00,South,175,4.0,17.0,72,-99.99,,,-99.99,,2013-07-06 07:02:00,
2013-07-06 02:22:00,71.0,61.0,-100.00,South,175,4.0,17.0,72,-99.99,,,-99.99,,2013-07-06 07:22:00,
2013-07-06 02:33:00,71.0,61.0,-100.00,South,175,4.0,17.0,72,-99.99,,,-99.99,,2013-07-06 07:33:00,
2013-07-06 02:44:00,71.0,61.0,-100.00,South,175,4.0,17.0,72,-99.99,,,-99.99,,2013-07-06 07:44:00,
2013-07-06 02:52:00,71.0,61.0,-100.00,South,175,4.0,17.0,72,-99.99,,,-99.99,,2013-07-06 07:52:00,
2013-07-06 03:02:00,70.0,62.0,-100.00,South,185,2.0,11.0,76,-99.99,,,-99.99,,2013-07-06 08:02:00,
2013-07-06 03:22:00,70.0,62.0,-100.00,South,185,2.0,11.0,76,-99.99,,,-99.99,,2013-07-06 08:22:00,
2013-07-06 03:34:00,70.0,62.0,-100.00,South,185,2.0,11.0,76,-99.99,,,-99.99,,2013-07-06 08:34:00,
2013-07-06 03:43:00,70.0,62.0,-100.00,South,185,2.0,11.0,76,-99.99,,,-99.99,,2013-07-06 08:43:00,
2013-07-06 03:54:00,70.0,62.0,-100.00,South,185,2.0,11.0,76,-99.99,,,-99.99,,2013-07-06 08:54:00,
2013-07-06 04:22:00,69.0,62.0,-100.00,SW,235,2.0,8.0,81,-99.99,,,-99.99,,2013-07-06 09:22:00,
2013-07-06 04:34:00,69.0,62.0,-100.00,SW,235,2.0,8.0,81,-99.99,,,-99.99,,2013-07-06 09:34:00,
2013-07-06 04:43:00,69.0,62.0,-100.00,SW,235,2.0,8.0,81,-99.99,,,-99.99,,2013-07-06 09:43:00,
2013-07-06 04:53:00,69.0,62.0,-100.00,SW,235,2.0,8.0,81,-99.99,,,-99.99,,2013-07-06 09:53:00,
2013-07-06 05:02:00,69.0,62.0,-100.00,SW,235,2.0,8.0,81,-99.99,,,-99.99,,2013-07-06 10:02:00,
2013-07-06 05:22:00,68.0,63.0,-100.00,SSE,160,4.0,12.0,84,-99.99,,,-99.99,,2013-07-06 10:22:00,
2013-07-06 05:33:00,68.0,63.0,-100.00,SSE,160,4.0,12.0,84,-99.99,,,-99.99,,2013-07-06 10:33:00,
2013-07-06 05:43:00,68.0,63.0,-100.00,SSE,160,4.0,12.0,84,-99.99,,,-99.99,,2013-07-06 10:43:00,
2013-07-06 05:53:00,68.0,63.0,-100.00,SSE,160,4.0,12.0,84,-99.99,,,-99.99,,2013-07-06 10:53:00,
2013-07-06 06:01:00,68.0,63.0,-100.00,SSE,160,4.0,12.0,84,-99.99,,,-99.99,,2013-07-06 11:01:00,
2013-07-06 06:22:00,67.0,63.0,-100.00,SSW,205,3.0,11.0,87,-99.99,,,-99.99,,2013-07-06 11:22:00,
2013-07-06 06:33:00,67.0,63.0,-100.00,SSW,205,3.0,11.0,87,-99.99,,,-99.99,,2013-07-06 11:33:00,
2013-07-06 06:43:00,67.0,63.0,-100.00,SSW,205,3.0,11.0,87,-99.99,,,-99.99,,2013-07-06 11:43:00,
2013-07-06 06:53:00,67.0,63.0,-100.00,SSW,205,3.0,11.0,87,-99.99,,,-99.99,,2013-07-06 11:53:00,
2013-07-06 07:01:00,67.0,63.0,-100.00,SSW,205,3.0,11.0,87,-99.99,,,-99.99,,2013-07-06 12:01:00,
2013-07-06 07:22:00,70.0,64.0,-100.00,WSW,245,3.0,7.0,81,-99.99,,,-99.99,,2013-07-06 12:22:00,
2013-07-06 07:33:00,70.0,64.0,-100.00,WSW,245,3.0,7.0,81,-99.99,,,-99.99,,2013-07-06 12:33:00,
2013-07-06 07:43:00,70.0,64.0,-100.00,WSW,245,3.0,7.0,81,-99.99,,,-99.99,,2013-07-06 12:43:00,
2013-07-06 07:52:00,70.0,64.0,-100.00,WSW,245,3.0,7.0,81,-99.99,,,-99.99,,2013-07-06 12:52:00,
2013-07-06 08:01:00,70.0,64.0,-100.00,WSW,245,3.0,7.0,81,-99.99,,,-99.99,,2013-07-06 13:01:00,
2013-07-06 08:22:00,74.0,63.0,-100.00,WSW,255,3.0,15.0,70,-99.99,,,-99.99,,2013-07-06 13:22:00,
2013-07-06 08:33:00,74.0,63.0,-100.00,WSW,255,3.0,15.0,70,-99.99,,,-99.99,,2013-07-06 13:33:00,
2013-07-06 08:43:00,74.0,63.0,-100.00,WSW,255,3.0,15.0,70,-99.99,,,-99.99,,2013-07-06 13:43:00,
2013-07-06 08:52:00,74.0,63.0,-100.00,WSW,255,3.0,15.0,70,-99.99,,,-99.99,,2013-07-06 13:52:00,
2013-07-06 09:01:00,76.0,63.0,-100.00,SW,225,4.0,12.0,64,-99.99,,,-99.99,,2013-07-06 14:01:00,
2013-07-06 09:22:00,76.0,63.0,-100.00,SW,225,4.0,12.0,64,-99.99,,,-99.99,,2013-07-06 14:22:00,
2013-07-06 09:34:00,76.0,63.0,-100.00,SW,225,4.0,12.0,64,-99.99,,,-99.99,,2013-07-06 14:34:00,
2013-07-06 09:42:00,76.0,63.0,-100.00,SW,225,4.0,12.0,64,-99.99,,,-99.99,,2013-07-06 14:42:00,
2013-07-06 09:53:00,76.0,63.0,-100.00,SW,225,4.0,12.0,64,-99.99,,,-99.99,,2013-07-06 14:53:00,
2013-07-06 10:02:00,81.0,63.0,-100.00,SSW,200,2.0,11.0,55,-99.99,,,-99.99,,2013-07-06 15:02:00,
2013-07-06 10:22:00,81.0,63.0,-100.00,SSW,200,2.0,11.0,55,-99.99,,,-99.99,,2013-07-06 15:22:00,
2013-07-06 10:33:00,81.0,63.0,-100.00,SSW,200,2.0,11.0,55,-99.99,,,-99.99,,2013-07-06 15:33:00,
2013-07-06 10:43:00,81.0,63.0,-100.00,SSW,200,2.0,11.0,55,-99.99,,,-99.99,,2013-07-06 15:43:00,
2013-07-06 10:53:00,81.0,63.0,-100.00,SSW,200,2.0,11.0,55,-99.99,,,-99.99,,2013-07-06 15:53:00,
2013-07-06 11:30:00,84.0,61.0,-100.00,SSW,195,2.0,13.0,46,-99.99,,,-99.99,,2013-07-06 16:30:00,
2013-07-06 12:00:00,84.0,61.0,-100.00,SSW,195,2.0,13.0,46,-99.99,,,-99.99,,2013-07-06 17:00:00,
2013-07-06 13:01:00,88.0,61.0,-100.00,SSW,210,6.0,14.0,40,-99.99,,,-99.99,,2013-07-06 18:01:00,
2013-07-06 13:38:00,88.0,61.0,-100.00,SSW,210,6.0,14.0,40,-99.99,,,-99.99,,2013-07-06 18:38:00,
2013-07-06 14:01:00,87.0,60.0,-100.00,SW,230,2.0,15.0,41,-99.99,,,-99.99,,2013-07-06 19:01:00,
2013-07-06 14:34:00,87.0,60.0,-100.00,SW,230,2.0,15.0,41,-99.99,,,-99.99,,2013-07-06 19:34:00,
2013-07-06 14:49:00,87.0,60.0,-100.00,SW,230,2.0,15.0,41,-99.99,,,-99.99,,2013-07-06 19:49:00,
2013-07-06 14:58:00,87.0,60.0,-100.00,SW,230,2.0,15.0,41,-99.99,,,-99.99,,2013-07-06 19:58:00,
2013-07-06 15:02:00,88.0,61.0,-100.00,SSW,195,7.0,18.0,40,-99.99,,,-99.99,,2013-07-06 20:02:00,
2013-07-06 15:36:00,88.0,61.0,-100.00,SSW,195,7.0,18.0,40,-99.99,,,-99.99,,2013-07-06 20:36:00,
2013-07-06 16:00:00,88.0,61.0,-100.00,SSW,195,7.0,18.0,40,-99.99,,,-99.99,,2013-07-06 21:00:00,
2013-07-06 16:02:00,87.0,61.0,-100.00,South,185,4.0,9.0,42,-99.99,,,-99.99,,2013-07-06 21:02:00,
2013-07-06 16:37:00,87.0,61.0,-100.00,South,185,4.0,9.0,42,-99.99,,,-99.99,,2013-07-06 21:37:00,
2013-07-06 16:49:00,87.0,61.0,-100.00,South,185,4.0,9.0,42,-99.99,,,-99.99,,2013-07-06 21:49:00,
2013-07-06 17:00:00,87.0,61.0,-100.00,South,185,4.0,9.0,42,-99.99,,,-99.99,,2013-07-06 22:00:00,
2013-07-06 17:01:00,87.0,62.0,-100.00,SSW,200,4.0,12.0,42,-99.99,,,-99.99,,2013-07-06 22:01:00,
2013-07-06 17:36:00,87.0,62.0,-100.00,SSW,200,4.0,12.0,42,-99.99,,,-99.99,,2013-07-06 22:36:00,
2013-07-06 18:01:00,85.0,62.0,-100.00,SSW,195,4.0,10.0,46,-99.99,,,-99.99,,2013-07-06 23:01:00,
2013-07-06 18:34:00,85.0,62.0,-100.00,SSW,195,4.0,10.0,46,-99.99,,,-99.99,,2013-07-06 23:34:00,
2013-07-06 18:51:00,85.0,62.0,-100.00,SSW,195,4.0,10.0,46,-99.99,,,-99.99,,2013-07-06 23:51:00,
2013-07-06 19:02:00,83.0,60.0,-100.00,SW,215,4.0,12.0,45,-99.99,,,-99.99,,2013-07-07 00:02:00,
2013-07-06 19:59:00,83.0,60.0,-100.00,SW,215,4.0,12.0,45,-99.99,,,-99.99,,2013-07-07 00:59:00,
2013-07-06 20:01:00,80.0,62.0,-100.00,SSW,200,3.0,6.0,54,-99.99,,,-99.99,,2013-07-07 01:01:00,
2013-07-06 20:36:00,80.0,62.0,-100.00,SSW,200,3.0,6.0,54,-99.99,,,-99.99,,2013-07-07 01:36:00,
2013-07-06 20:49:00,80.0,62.0,-100.00,SSW,200,3.0,6.0,54,-99.99,,,-99.99,,2013-07-07 01:49:00,
2013-07-06 20:59:00,80.0,62.0,-100.00,SSW,200,3.0,6.0,54,-99.99,,,-99.99,,2013-07-07 01:59:00,
2013-07-06 21:01:00,78.0,63.0,-100.00,South,170,2.0,6.0,60,-99.99,,,-99.99,,2013-07-07 02:01:00,
2013-07-06 21:34:00,78.0,63.0,-100.00,South,170,2.0,6.0,60,-99.99,,,-99.99,,2013-07-07 02:34:00,
2013-07-06 21:43:00,78.0,63.0,-100.00,South,170,2.0,6.0,60,-99.99,,,-99.99,,2013-07-07 02:43:00,
2013-07-06 23:21:00,76.0,65.0,-100.00,South,175,3.0,10.0,68,-99.99,,,-99.99,,2013-07-07 04:21:00,
2013-07-06 23:31:00,76.0,65.0,-100.00,South,175,3.0,10.0,68,-99.99,,,-99.99,,2013-07-07 04:31:00,
2013-07-06 23:41:00,76.0,65.0,-100.00,South,175,3.0,10.0,68,-99.99,,,-99.99,,2013-07-07 04:41:00,
2013-07-06 23:51:00,76.0,65.0,-100.00,South,175,3.0,10.0,68,-99.99,,,-99.99,,2013-07-07 04:51:00,